Celestine, Indiana
Current Conditions -  °F | °C
As of 3:55 PM on Saturday 25 Oct 2014 (Local Time) from KHNB Reporting Station
Clear Clear  
Wind Chill: 77°   Ceiling: Unl
Heat Index: 79°   Visibility: 10mi
Dew Point: 55°   Wind: 10mph
Humidity: 47%   Direction: 340°NNW
Pressure: 29.98"   Gusts: NA
Location:  38.38°N, 86.78°W
Report Text: KHNB 252055Z AUTO 34009KT 10SM CLR 25/13 A2998 RMK AO1 57007
Loading
Personal Weather Stations






























Interactive Weather Map
Tropical Storm Tracking
New forecast layout! Learn more

10-Day Weather Forecast

Advertisements
Track Severe Weather on mobile